GMMN/CMN METAR and TAF weather

Enter ICAO airport designator
Station Type Date Time Source
GMMN METAR 2021/04/13 07:00 UTC NOAA

GMMN 130700Z VRB02KT 0250 R35R/0300N FG BKN002 13/13 Q1018 BECMG 3000 BR SCT006


Station Type Date Time Source
GMMN Decoded METAR 2021/04/13 07:00 UTC NOAA

Nouasseur, Morocco (GMMN) 33-22N 007-35W 206M
Apr 13, 2021 - 03:00 AM EDT / 2021.04.13 0700 UTC
Wind: Variable at 2 MPH (2 KT):0
Visibility: less than 1 mile:0
Sky conditions: mostly cloudy
Weather: fog
Temperature: 55 F (13 C)
Dew Point: 55 F (13 C)
Relative Humidity: 100%
Pressure (altimeter): 30.06 in. Hg (1018 hPa)
ob: GMMN 130700Z VRB02KT 0250 R35R/0300N FG BKN002 13/13 Q1018 BECMG 3000 BR SCT006
cycle: 7

Station Type Date Time Source
GMMN TAF 2021/04/13 06:21 UTC NOAA

TAF TAF GMMN 130500Z 1306/1412 13005KT 0400 FG BKN004
BECMG 1306/1308 5000 SCT006
BECMG 1311/1313 36011KT
BECMG 1319/1321 33007KT
TEMPO 1401/1406 3000 BR BKN008

Example: see airport list